Time;durP1;ratioP1;P1;durP2;ratioP2;P2;SDS_P1;SDS_P2;PMS_P1;PMS_P2;Temp;Humidity;BMP_temperature;BMP_pressure;BME280_temperature;BME280_humidity;BME280_pressure;Samples;Min_cycle;Max_cycle;Signal;HPM_P1;HPM_P2
2022/07/24 00:01:57;;;;;;;9.13;6.40;;;;;;;26.43;44.54;95080.50;5058887;28;20036;-52
2022/07/24 00:04:22;;;;;;;10.73;6.15;;;;;;;26.36;44.86;95078.38;5060517;28;20025;-52
2022/07/24 00:06:48;;;;;;;12.65;6.85;;;;;;;26.38;44.33;95078.56;5047331;28;20046;-52
2022/07/24 00:09:13;;;;;;;12.30;6.43;;;;;;;26.36;44.84;95086.59;5059632;28;20668;-52
2022/07/24 00:11:38;;;;;;;10.93;6.20;;;;;;;26.34;44.68;95075.44;5060679;28;20121;-55
2022/07/24 00:14:04;;;;;;;11.40;6.38;;;;;;;26.29;44.52;95070.78;5060748;28;20787;-53
2022/07/24 00:16:29;;;;;;;15.13;7.13;;;;;;;26.28;44.46;95074.81;5058884;28;20029;-53
2022/07/24 00:18:55;;;;;;;8.68;6.07;;;;;;;26.25;44.43;95075.81;5060311;28;20009;-54
2022/07/24 00:21:21;;;;;;;11.52;6.82;;;;;;;26.22;44.38;95079.63;5059544;28;20063;-53
2022/07/24 00:23:46;;;;;;;12.02;6.53;;;;;;;26.20;44.25;95079.38;5059922;28;20025;-53
2022/07/24 00:26:12;;;;;;;12.80;6.03;;;;;;;26.18;44.47;95076.44;5053946;28;20024;-53
2022/07/24 00:28:37;;;;;;;11.98;7.00;;;;;;;26.18;44.44;95075.72;5041612;28;20027;-53
2022/07/24 00:31:03;;;;;;;11.70;6.63;;;;;;;26.13;44.38;95074.56;5059415;28;20123;-53
2022/07/24 00:33:28;;;;;;;9.65;6.32;;;;;;;26.09;44.78;95079.59;5040014;28;20028;-53
2022/07/24 00:35:54;;;;;;;11.85;6.32;;;;;;;26.09;45.07;95074.13;5049444;28;20036;-53
2022/07/24 00:38:19;;;;;;;14.70;7.07;;;;;;;26.08;44.80;95080.84;5063636;28;20051;-53
2022/07/24 00:40:45;;;;;;;13.02;6.38;;;;;;;26.06;44.64;95069.69;5059436;28;20029;-53
2022/07/24 00:43:10;;;;;;;14.27;7.10;;;;;;;26.02;44.46;95074.78;5061594;28;20020;-53
2022/07/24 00:45:36;;;;;;;11.85;7.03;;;;;;;26.02;44.54;95074.78;5041113;28;20052;-53
2022/07/24 00:48:02;;;;;;;10.18;6.50;;;;;;;25.98;45.14;95074.34;5059069;28;21036;-53
2022/07/24 00:50:27;;;;;;;11.95;6.80;;;;;;;25.95;44.59;95069.91;5063378;28;20086;-53
2022/07/24 00:52:53;;;;;;;12.90;7.03;;;;;;;25.94;44.82;95068.44;5049286;28;20041;-53
2022/07/24 00:55:18;;;;;;;13.25;6.75;;;;;;;25.92;44.97;95070.22;5043967;28;20036;-52
2022/07/24 00:57:46;;;;;;;11.95;6.28;;;;;;;25.89;45.31;95065.81;5052663;28;20025;-52
2022/07/24 01:00:12;;;;;;;15.82;6.85;;;;;;;25.87;45.29;95068.31;5047915;28;20450;-52
2022/07/24 01:02:41;;;;;;;15.75;7.00;;;;;;;25.86;45.39;95067.59;5061962;28;20040;-52
2022/07/24 01:05:10;;;;;;;22.75;7.40;;;;;;;25.83;45.67;95062.44;5043108;28;20059;-52
2022/07/24 01:07:36;;;;;;;8.32;6.20;;;;;;;25.81;45.78;95071.16;5062461;28;20032;-53
2022/07/24 01:10:01;;;;;;;12.48;6.60;;;;;;;25.79;45.73;95073.66;5062692;28;20047;-52
2022/07/24 01:12:27;;;;;;;10.68;5.93;;;;;;;25.77;45.53;95074.72;5060411;28;20108;-52
2022/07/24 01:14:52;;;;;;;10.00;6.47;;;;;;;25.78;45.51;95065.25;5062879;28;20530;-52
2022/07/24 01:17:18;;;;;;;11.80;6.18;;;;;;;25.76;45.79;95067.78;5054844;28;20036;-52
2022/07/24 01:19:44;;;;;;;11.13;6.97;;;;;;;25.74;45.98;95067.56;5045045;28;20040;-53
2022/07/24 01:22:09;;;;;;;11.02;6.90;;;;;;;25.72;46.04;95068.06;5061551;28;20036;-53
2022/07/24 01:24:34;;;;;;;11.43;6.53;;;;;;;25.63;46.11;95051.31;5062663;28;20772;-53
2022/07/24 01:27:00;;;;;;;12.30;6.88;;;;;;;25.69;46.03;95065.66;5052691;28;20483;-56
2022/07/24 01:29:25;;;;;;;14.85;6.55;;;;;;;25.65;46.32;95067.94;5059796;28;20471;-53
2022/07/24 01:31:51;;;;;;;12.40;6.40;;;;;;;25.62;46.36;95064.25;5061864;28;20051;-53
2022/07/24 01:34:16;;;;;;;13.68;7.03;;;;;;;25.60;46.27;95055.09;5041519;28;20102;-53
2022/07/24 01:36:42;;;;;;;12.52;6.45;;;;;;;25.59;46.37;95059.06;5061780;28;20032;-53
2022/07/24 01:39:07;;;;;;;13.98;6.65;;;;;;;25.57;46.44;95061.59;5056165;28;20738;-53
2022/07/24 01:41:33;;;;;;;11.20;7.38;;;;;;;25.54;46.73;95062.66;5061528;28;20052;-53
2022/07/24 01:43:58;;;;;;;12.25;6.50;;;;;;;25.53;46.62;95055.69;5062218;28;20040;-54
2022/07/24 01:46:24;;;;;;;10.48;6.55;;;;;;;25.49;46.67;95060.75;5060762;28;20020;-53
2022/07/24 01:48:49;;;;;;;9.98;6.43;;;;;;;25.50;46.76;95056.72;5053826;28;20599;-53
2022/07/24 01:51:15;;;;;;;11.52;6.72;;;;;;;25.47;46.81;95055.03;5060365;28;20028;-53
2022/07/24 01:53:40;;;;;;;10.77;6.90;;;;;;;25.46;46.90;95048.13;5061629;28;20029;-53
2022/07/24 01:56:06;;;;;;;13.75;6.75;;;;;;;25.45;46.49;95050.09;5060011;28;20533;-53
2022/07/24 01:58:31;;;;;;;11.98;6.70;;;;;;;25.42;46.76;95042.22;5049974;28;20097;-53
2022/07/24 02:00:57;;;;;;;10.65;6.25;;;;;;;25.41;46.37;95044.22;5061669;28;20025;-53
2022/07/24 02:03:22;;;;;;;10.68;6.30;;;;;;;25.40;46.55;95036.53;5061456;28;20392;-55
2022/07/24 02:05:48;;;;;;;11.98;6.13;;;;;;;25.37;46.61;95043.78;5060294;28;20676;-53
2022/07/24 02:08:13;;;;;;;12.95;6.28;;;;;;;25.36;46.71;95041.56;5050692;28;20342;-52
2022/07/24 02:10:39;;;;;;;12.05;6.32;;;;;;;25.35;46.74;95042.81;5061977;28;20021;-53
2022/07/24 02:13:05;;;;;;;11.10;6.25;;;;;;;25.34;46.93;95038.63;5060922;28;20255;-52
2022/07/24 02:15:30;;;;;;;11.68;7.03;;;;;;;25.30;47.13;95038.16;5061205;28;20132;-52
2022/07/24 02:17:57;;;;;;;9.88;6.72;;;;;;;25.27;46.95;95035.75;5042763;28;20487;-53
2022/07/24 02:20:23;;;;;;;11.63;6.50;;;;;;;25.26;47.01;95037.75;5046828;28;20548;-52
2022/07/24 02:22:49;;;;;;;11.82;6.38;;;;;;;25.25;47.27;95047.22;5060996;28;20107;-52
2022/07/24 02:25:14;;;;;;;11.57;6.95;;;;;;;25.26;46.95;95037.75;5043516;28;20036;-51
2022/07/24 02:27:40;;;;;;;11.35;5.97;;;;;;;25.21;46.87;95041.28;5057167;28;20968;-52
2022/07/24 02:30:07;;;;;;;8.52;5.72;;;;;;;25.22;46.56;95037.31;5061328;28;20027;-53
2022/07/24 02:32:32;;;;;;;13.45;6.30;;;;;;;25.19;46.43;95043.81;5060451;28;20036;-52
2022/07/24 02:34:58;;;;;;;12.25;7.10;;;;;;;25.18;46.88;95047.81;5061228;28;20406;-52
2022/07/24 02:37:23;;;;;;;11.73;6.35;;;;;;;25.14;47.32;95047.38;5053281;28;20118;-52
2022/07/24 02:39:49;;;;;;;9.98;6.18;;;;;;;25.13;47.17;95056.84;5042129;28;20083;-51
2022/07/24 02:42:14;;;;;;;9.02;6.47;;;;;;;25.05;47.14;95047.78;5054375;28;20040;-51
2022/07/24 02:44:39;;;;;;;11.45;7.35;;;;;;;25.09;46.83;95056.38;5061193;28;20736;-52
2022/07/24 02:47:05;;;;;;;11.57;5.88;;;;;;;25.11;46.73;95053.88;5059845;28;20024;-52
2022/07/24 02:49:30;;;;;;;10.30;6.35;;;;;;;25.08;46.40;95049.47;5056749;28;20028;-52
2022/07/24 02:51:56;;;;;;;12.95;6.57;;;;;;;25.07;46.64;95047.97;5054154;28;20085;-53
2022/07/24 02:54:21;;;;;;;10.07;6.00;;;;;;;25.07;46.75;95047.97;5052869;28;20031;-53
2022/07/24 02:56:47;;;;;;;12.60;6.53;;;;;;;25.07;46.60;95047.97;5045391;28;20021;-52
2022/07/24 02:59:12;;;;;;;12.02;7.07;;;;;;;25.06;46.27;95045.75;5052430;28;20027;-52
2022/07/24 03:01:38;;;;;;;10.63;6.22;;;;;;;25.06;46.57;95046.50;5060078;28;20549;-52
2022/07/24 03:04:03;;;;;;;11.27;6.75;;;;;;;25.03;46.83;95053.00;5060728;28;20021;-53
2022/07/24 03:06:29;;;;;;;9.40;6.45;;;;;;;25.01;46.90;95055.50;5059937;28;20025;-52
2022/07/24 03:08:54;;;;;;;11.57;6.63;;;;;;;25.01;47.07;95043.88;5060005;28;20047;-51
2022/07/24 03:11:20;;;;;;;13.00;6.57;;;;;;;24.97;47.01;95048.84;5060310;28;20496;-52
2022/07/24 03:13:45;;;;;;;11.52;6.55;;;;;;;24.97;47.46;95046.84;5060102;28;20108;-52
2022/07/24 03:16:11;;;;;;;12.93;6.60;;;;;;;24.94;47.42;95050.63;5060215;28;20487;-54
2022/07/24 03:18:36;;;;;;;11.90;6.75;;;;;;;24.93;47.01;95049.16;5049014;28;20013;-53
2022/07/24 03:21:02;;;;;;;11.68;6.47;;;;;;;24.94;46.60;95050.63;5060667;28;20060;-54
2022/07/24 03:23:27;;;;;;;11.48;6.30;;;;;;;24.95;47.14;95051.38;5061151;28;20117;-53
2022/07/24 03:25:54;;;;;;;12.65;6.50;;;;;;;24.92;46.91;95064.06;5059990;28;20546;-53
2022/07/24 03:28:19;;;;;;;9.70;6.03;;;;;;;24.90;47.28;95065.81;5054595;28;20048;-52
2022/07/24 03:30:45;;;;;;;10.05;6.15;;;;;;;24.89;47.26;95048.72;5059947;28;20052;-54
2022/07/24 03:33:11;;;;;;;11.10;7.10;;;;;;;24.89;47.19;95054.16;5059968;28;20487;-54
2022/07/24 03:35:36;;;;;;;12.27;6.95;;;;;;;24.87;47.08;95055.94;5057342;28;20032;-54
2022/07/24 03:38:02;;;;;;;12.35;6.60;;;;;;;24.86;46.76;95062.66;5047114;28;20687;-53
2022/07/24 03:40:27;;;;;;;10.95;6.40;;;;;;;24.86;46.12;95049.75;5060187;28;20108;-53
2022/07/24 03:42:53;;;;;;;12.13;6.38;;;;;;;24.87;46.72;95056.69;5059488;28;20024;-53
2022/07/24 03:45:18;;;;;;;13.88;7.10;;;;;;;24.85;46.73;95061.91;5059809;28;20048;-52
2022/07/24 03:47:44;;;;;;;9.93;6.50;;;;;;;24.84;47.03;95052.25;5049073;28;20541;-54
2022/07/24 03:50:09;;;;;;;10.27;6.28;;;;;;;24.85;47.10;95064.66;5059668;28;20067;-52
2022/07/24 03:52:35;;;;;;;10.73;6.63;;;;;;;24.84;47.32;95063.19;5049390;28;20044;-53
2022/07/24 03:55:00;;;;;;;11.15;6.78;;;;;;;24.84;47.01;95057.72;5056865;28;20032;-54
2022/07/24 03:57:25;;;;;;;9.32;6.45;;;;;;;24.84;47.24;95046.81;5030575;28;20037;-53
2022/07/24 03:59:52;;;;;;;11.18;6.80;;;;;;;24.84;46.93;95038.59;5054658;28;20059;-53
2022/07/24 04:02:17;;;;;;;9.70;6.40;;;;;;;24.84;47.00;95046.81;5059386;28;20502;-52
2022/07/24 04:04:43;;;;;;;11.48;6.60;;;;;;;24.83;47.15;95045.31;5054614;28;20024;-51
2022/07/24 04:07:08;;;;;;;13.40;6.25;;;;;;;24.85;47.19;95042.78;5035481;28;20021;-52
2022/07/24 04:09:34;;;;;;;9.82;6.97;;;;;;;24.86;47.92;95049.75;5050037;28;20020;-52
2022/07/24 04:11:59;;;;;;;11.98;6.88;;;;;;;24.85;47.83;95051.00;5041016;28;20020;-52
2022/07/24 04:14:25;;;;;;;12.07;6.70;;;;;;;24.84;47.71;95065.91;5033153;28;20863;-52
2022/07/24 04:16:50;;;;;;;12.07;6.53;;;;;;;24.85;48.06;95053.00;5053850;28;20020;-53
2022/07/24 04:19:16;;;;;;;9.93;6.45;;;;;;;24.83;47.97;95050.78;5059588;28;20561;-52
2022/07/24 04:21:41;;;;;;;15.60;6.95;;;;;;;24.84;47.79;95060.47;5059233;28;20028;-52
2022/07/24 04:24:07;;;;;;;9.32;6.20;;;;;;;24.85;47.85;95053.72;5058647;28;20024;-53
2022/07/24 04:26:32;;;;;;;10.57;6.80;;;;;;;24.87;48.09;95056.69;5056284;28;20141;-53
2022/07/24 04:28:58;;;;;;;11.07;6.45;;;;;;;24.87;48.31;95053.19;5047260;28;20056;-52
2022/07/24 04:31:23;;;;;;;10.80;6.20;;;;;;;24.86;48.60;95066.13;5040113;28;20185;-51
2022/07/24 04:33:49;;;;;;;11.00;6.25;;;;;;;24.88;48.66;95052.69;5059455;28;20476;-53
2022/07/24 04:36:14;;;;;;;10.15;7.05;;;;;;;24.89;48.64;95065.09;5057271;28;20033;-52
2022/07/24 04:38:40;;;;;;;12.93;6.53;;;;;;;24.91;49.09;95065.31;5054401;28;20558;-52
2022/07/24 04:41:06;;;;;;;12.57;6.38;;;;;;;24.91;48.86;95064.59;5053077;28;20037;-52
2022/07/24 04:43:31;;;;;;;11.38;6.55;;;;;;;24.91;48.77;95062.56;5059403;28;20062;-53
2022/07/24 04:45:56;;;;;;;10.85;6.45;;;;;;;24.92;48.95;95064.06;5058745;28;20582;-52
2022/07/24 04:48:22;;;;;;;12.05;7.05;;;;;;;24.94;48.94;95066.28;5058928;28;20028;-53
2022/07/24 04:50:47;;;;;;;11.30;6.57;;;;;;;24.94;48.81;95072.47;5057409;28;20031;-53
2022/07/24 04:53:13;;;;;;;12.10;6.78;;;;;;;24.97;48.71;95065.97;5058612;28;20032;-52
2022/07/24 04:55:38;;;;;;;13.57;6.82;;;;;;;24.98;48.96;95075.66;5051858;28;20039;-53
2022/07/24 04:58:04;;;;;;;9.18;6.05;;;;;;;25.01;49.04;95063.72;5050129;28;20032;-53
2022/07/24 05:00:29;;;;;;;14.82;7.40;;;;;;;25.04;48.80;95062.69;5058571;28;20028;-52
2022/07/24 05:02:55;;;;;;;11.93;6.63;;;;;;;25.07;48.47;95064.38;5051458;28;20050;-52
2022/07/24 05:05:20;;;;;;;13.27;7.22;;;;;;;25.10;47.72;95066.06;5054390;28;20028;-53
2022/07/24 05:07:46;;;;;;;14.65;7.43;;;;;;;25.10;47.66;95073.53;5047469;28;20021;-53
2022/07/24 05:10:11;;;;;;;11.70;7.13;;;;;;;25.14;48.07;95068.50;5058580;28;20484;-54
2022/07/24 05:12:36;;;;;;;13.70;7.05;;;;;;;25.15;48.07;95073.44;5058599;28;20024;-53
2022/07/24 05:15:04;;;;;;;14.27;7.22;;;;;;;25.19;47.92;95076.63;5052349;28;20045;-53
2022/07/24 05:17:29;;;;;;;14.07;6.45;;;;;;;25.22;47.63;95080.31;5057511;28;20577;-53
2022/07/24 05:19:54;;;;;;;12.32;7.13;;;;;;;25.27;47.45;95082.22;5055233;28;20037;-54
2022/07/24 05:22:20;;;;;;;11.40;7.25;;;;;;;25.32;47.49;95073.94;5050898;28;20036;-54
2022/07/24 05:24:45;;;;;;;12.73;7.47;;;;;;;25.38;47.46;95077.31;5059009;28;20704;-55
2022/07/24 05:27:11;;;;;;;10.70;6.50;;;;;;;25.43;47.33;95077.22;5060305;28;20097;-52
2022/07/24 05:29:36;;;;;;;12.50;7.43;;;;;;;25.48;46.88;95075.66;5061015;28;20676;-52
2022/07/24 05:32:02;;;;;;;11.38;7.35;;;;;;;25.55;47.06;95077.81;5061094;28;20125;-54
2022/07/24 05:34:29;;;;;;;11.13;7.45;;;;;;;25.59;46.71;95075.47;5061925;28;20737;-53
2022/07/24 05:36:54;;;;;;;14.10;7.70;;;;;;;25.65;46.61;95074.19;5061399;28;20021;-54
2022/07/24 05:39:20;;;;;;;13.10;7.50;;;;;;;25.72;46.17;95073.53;5061797;28;20066;-53
2022/07/24 05:41:45;;;;;;;13.50;7.18;;;;;;;25.84;45.88;95064.66;5060927;28;20081;-54
2022/07/24 05:44:11;;;;;;;14.90;7.68;;;;;;;26.03;45.63;95081.69;5061410;28;20017;-54
2022/07/24 05:46:36;;;;;;;15.45;8.05;;;;;;;26.19;45.29;95072.47;5060976;28;20012;-53
2022/07/24 05:49:02;;;;;;;12.80;7.80;;;;;;;26.34;45.13;95067.22;5060889;28;20032;-52
2022/07/24 05:51:27;;;;;;;13.50;7.53;;;;;;;26.50;44.20;95068.88;5056460;28;20272;-52
2022/07/24 05:53:53;;;;;;;12.38;7.70;;;;;;;26.66;43.81;95071.28;5057383;28;20040;-53
2022/07/24 05:56:18;;;;;;;12.40;7.93;;;;;;;26.81;43.45;95072.19;5059694;28;20024;-52
2022/07/24 05:58:44;;;;;;;12.38;7.10;;;;;;;26.96;43.50;95077.88;5058208;28;20024;-53
2022/07/24 06:01:09;;;;;;;15.40;7.97;;;;;;;27.11;42.85;95072.56;5056095;28;20438;-52
2022/07/24 06:03:35;;;;;;;14.55;7.25;;;;;;;27.26;42.72;95056.28;5061094;28;20986;-53
2022/07/24 06:06:00;;;;;;;13.88;7.15;;;;;;;27.45;42.04;95056.81;5059307;28;20024;-54
2022/07/24 06:08:26;;;;;;;10.55;7.55;;;;;;;27.61;41.76;95058.44;5058437;28;20037;-52
2022/07/24 06:10:51;;;;;;;12.30;7.72;;;;;;;27.73;41.98;95065.13;5058908;28;20024;-54
2022/07/24 06:13:17;;;;;;;15.50;7.38;;;;;;;27.82;41.46;95066.13;5058019;28;20452;-54
2022/07/24 06:15:42;;;;;;;12.45;7.28;;;;;;;27.93;41.26;95074.09;5043438;28;20044;-55
2022/07/24 06:18:08;;;;;;;13.95;7.00;;;;;;;28.01;41.49;95068.66;5060466;28;20276;-57
2022/07/24 06:20:33;;;;;;;12.75;7.20;;;;;;;28.19;40.46;95068.47;5059634;28;20103;-52
2022/07/24 06:22:59;;;;;;;12.93;7.40;;;;;;;28.34;39.47;95060.28;5058054;28;20047;-53
2022/07/24 06:25:24;;;;;;;11.32;6.72;;;;;;;28.45;39.39;95060.72;5059105;28;20422;-53
2022/07/24 06:27:50;;;;;;;14.73;7.10;;;;;;;28.49;39.67;95052.13;5058843;28;20123;-53
2022/07/24 06:30:26;;;;;;;13.18;7.25;;;;;;;28.66;39.10;95055.16;5057598;28;20506;-53
2022/07/24 06:32:52;;;;;;;13.75;7.43;;;;;;;28.68;38.49;95058.84;5057393;28;20028;-54
2022/07/24 06:35:18;;;;;;;11.45;6.80;;;;;;;28.79;38.40;95056.53;5057459;28;20123;-53
2022/07/24 06:37:43;;;;;;;16.45;7.07;;;;;;;28.94;38.75;95053.84;5057652;28;20036;-52
2022/07/24 06:40:09;;;;;;;12.00;6.97;;;;;;;28.90;38.33;95039.69;5059521;28;20463;-52
2022/07/24 06:42:35;;;;;;;10.75;6.80;;;;;;;29.01;37.92;95052.38;5056789;28;20037;-52
2022/07/24 06:45:00;;;;;;;12.00;6.65;;;;;;;29.12;37.93;95041.78;5040465;28;20032;-52
2022/07/24 06:47:26;;;;;;;13.77;7.40;;;;;;;29.20;38.24;95042.53;5049929;28;20048;-53
2022/07/24 06:49:54;;;;;;;11.18;7.10;;;;;;;29.36;38.07;95033.06;5054097;28;20029;-53
2022/07/24 06:52:19;;;;;;;13.15;7.25;;;;;;;29.41;37.37;95023.88;5059890;28;20036;-53
2022/07/24 06:54:45;;;;;;;11.32;6.88;;;;;;;29.45;37.63;95040.78;5056408;28;20035;-54
2022/07/24 06:57:11;;;;;;;11.18;6.43;;;;;;;29.49;36.88;95035.63;5057156;28;21169;-54
2022/07/24 06:59:36;;;;;;;11.10;7.10;;;;;;;29.51;37.39;95022.06;5057804;28;20023;-57
2022/07/24 07:02:02;;;;;;;12.52;7.20;;;;;;;29.51;37.00;95028.28;5058265;28;20029;-56
2022/07/24 07:04:27;;;;;;;10.70;6.35;;;;;;;29.57;37.30;95025.38;5057016;28;20094;-57
2022/07/24 07:06:52;;;;;;;12.30;7.18;;;;;;;29.61;37.33;95028.47;5055161;28;20131;-52
2022/07/24 07:09:18;;;;;;;13.18;7.00;;;;;;;29.65;37.02;95020.59;5059079;28;20024;-56
2022/07/24 07:11:44;;;;;;;13.15;6.50;;;;;;;29.75;37.20;95020.22;5053187;28;20748;-55
2022/07/24 07:14:09;;;;;;;11.50;6.55;;;;;;;29.82;36.64;95025.03;5056138;28;20048;-54
2022/07/24 07:16:35;;;;;;;13.77;7.72;;;;;;;29.92;36.75;95023.16;5058192;28;20041;-58
2022/07/24 07:19:00;;;;;;;13.48;6.45;;;;;;;29.99;36.91;95033.44;5052683;28;20510;-55
2022/07/24 07:21:25;;;;;;;14.00;7.50;;;;;;;29.98;35.79;95026.47;5057010;28;20033;-56
2022/07/24 07:23:52;;;;;;;10.82;6.75;;;;;;;30.04;36.43;95029.75;5053423;28;20032;-57
2022/07/24 07:26:18;;;;;;;13.38;7.05;;;;;;;30.06;36.34;95027.22;5058553;28;20544;-57
2022/07/24 07:28:43;;;;;;;12.13;6.97;;;;;;;30.04;36.51;95018.75;5045529;28;20024;-56
2022/07/24 07:31:09;;;;;;;10.50;6.45;;;;;;;30.04;36.75;95024.25;5059238;28;20045;-57
2022/07/24 07:33:34;;;;;;;12.15;6.57;;;;;;;30.07;36.64;95028.66;5054765;28;20060;-53
2022/07/24 07:35:59;;;;;;;10.18;6.70;;;;;;;30.10;36.51;95026.81;5050763;28;20032;-53
2022/07/24 07:38:25;;;;;;;11.25;7.13;;;;;;;30.14;36.86;95025.16;5057811;28;20085;-56
2022/07/24 07:40:50;;;;;;;11.30;6.80;;;;;;;30.16;37.06;95025.34;5059089;28;20055;-56
2022/07/24 07:43:16;;;;;;;9.40;6.53;;;;;;;30.23;36.83;95014.31;5053314;28;20033;-54
2022/07/24 07:45:41;;;;;;;10.13;6.15;;;;;;;30.28;36.77;95012.63;5043595;28;20039;-52
2022/07/24 07:48:07;;;;;;;10.68;6.45;;;;;;;30.30;36.77;95018.34;5059095;28;20507;-56
2022/07/24 07:50:32;;;;;;;9.82;6.40;;;;;;;30.34;36.74;95013.19;5059686;28;20495;-52
2022/07/24 07:52:58;;;;;;;10.13;6.28;;;;;;;30.37;36.92;95018.34;5058932;28;20028;-54
2022/07/24 07:55:23;;;;;;;10.88;6.25;;;;;;;30.42;37.03;95019.41;5037198;28;20483;-56
2022/07/24 07:57:49;;;;;;;9.18;6.05;;;;;;;30.49;36.78;95024.19;5059381;28;20029;-51
2022/07/24 08:00:15;;;;;;;11.98;6.43;;;;;;;30.50;36.60;95025.66;5059567;28;20029;-55
2022/07/24 08:02:40;;;;;;;9.63;5.90;;;;;;;30.55;36.10;95017.16;5057268;28;20032;-57
2022/07/24 08:05:06;;;;;;;11.00;6.45;;;;;;;30.55;36.35;95021.97;5059251;28;20036;-54
2022/07/24 08:07:32;;;;;;;11.82;6.40;;;;;;;30.63;36.81;95011.63;5050106;28;20025;-55
2022/07/24 08:09:57;;;;;;;10.80;6.07;;;;;;;30.60;36.55;95007.22;5058525;28;20043;-55
2022/07/24 08:12:23;;;;;;;10.10;6.70;;;;;;;30.67;36.43;95018.97;5053707;28;20023;-55
2022/07/24 08:14:48;;;;;;;13.88;6.78;;;;;;;30.69;36.38;95021.91;5054091;28;20033;-54
2022/07/24 08:17:14;;;;;;;11.68;6.25;;;;;;;30.66;36.42;95005.75;5056193;28;20069;-54
2022/07/24 08:19:40;;;;;;;9.30;6.40;;;;;;;30.74;36.38;95018.19;5058353;28;20437;-55
2022/07/24 08:22:05;;;;;;;12.00;7.03;;;;;;;30.81;35.91;95017.44;5059280;28;20113;-55
2022/07/24 08:24:32;;;;;;;11.50;5.90;;;;;;;30.84;36.48;95021.13;5037418;28;20056;-53
2022/07/24 08:26:57;;;;;;;11.80;6.72;;;;;;;30.86;36.19;95015.78;5056125;28;20113;-52
2022/07/24 08:29:23;;;;;;;8.68;6.28;;;;;;;30.88;36.02;95022.22;5058986;28;20028;-52
2022/07/24 08:31:49;;;;;;;10.98;6.53;;;;;;;30.93;36.00;95012.28;5054604;28;20033;-54
2022/07/24 08:34:14;;;;;;;9.43;6.28;;;;;;;30.92;36.19;95017.03;5052398;28;20037;-54
2022/07/24 08:36:40;;;;;;;12.02;6.60;;;;;;;30.96;36.45;95022.91;5040621;28;20111;-53
2022/07/24 08:39:05;;;;;;;9.82;6.30;;;;;;;30.98;36.18;95020.31;5054783;28;20698;-52
2022/07/24 08:41:35;;;;;;;11.43;6.88;;;;;;;30.99;36.33;95016.28;5057282;28;20035;-52
2022/07/24 08:44:01;;;;;;;11.15;6.60;;;;;;;31.01;36.25;95010.94;5058979;28;20102;-51
2022/07/24 08:46:27;;;;;;;9.02;6.63;;;;;;;31.05;36.16;95019.56;5056562;28;20296;-53
2022/07/24 08:48:52;;;;;;;11.77;6.35;;;;;;;31.09;36.08;95003.38;5033163;28;20506;-51
2022/07/24 08:51:18;;;;;;;11.80;6.43;;;;;;;31.12;36.01;95007.75;5037762;28;20020;-53
2022/07/24 08:53:43;;;;;;;11.02;6.38;;;;;;;31.14;35.86;95005.88;5033936;28;20424;-53
2022/07/24 08:56:09;;;;;;;9.98;6.60;;;;;;;31.11;36.00;95011.81;5053137;28;20470;-53
2022/07/24 08:58:39;;;;;;;10.25;6.10;;;;;;;31.16;36.05;95008.09;5063095;28;20220;-53
2022/07/24 09:01:04;;;;;;;12.77;7.22;;;;;;;31.18;35.82;95005.50;5044388;28;20364;-52
2022/07/24 09:03:41;;;;;;;8.85;6.95;;;;;;;31.22;35.86;95006.56;5057099;28;20589;-52
2022/07/24 09:06:07;;;;;;;13.75;7.57;;;;;;;31.22;35.70;95000.31;5051833;28;20122;-52
2022/07/24 09:08:33;;;;;;;9.02;6.18;;;;;;;31.24;35.89;94998.47;5063483;28;20539;-54
2022/07/24 09:11:03;;;;;;;9.70;7.10;;;;;;;31.30;36.46;95006.50;5064155;28;20125;-54
2022/07/24 09:13:32;;;;;;;10.70;6.95;;;;;;;31.27;36.20;94996.59;5061148;28;20077;-56
2022/07/24 09:15:58;;;;;;;12.40;7.32;;;;;;;31.31;36.00;94991.44;5050761;28;20093;-59
2022/07/24 09:18:30;;;;;;;10.45;6.82;;;;;;;31.35;36.06;94997.31;5061194;28;20044;-59
2022/07/24 09:20:56;;;;;;;13.40;6.93;;;;;;;31.35;36.68;94997.31;5048148;28;20178;-54
2022/07/24 09:23:22;;;;;;;9.93;6.60;;;;;;;31.37;36.21;95000.22;5060228;28;20037;-56
2022/07/24 09:25:52;;;;;;;10.40;6.20;;;;;;;31.36;36.11;94995.97;5044026;28;20109;-56
2022/07/24 09:28:17;;;;;;;7.78;5.88;;;;;;;31.38;36.79;94996.19;5061719;28;20028;-62
2022/07/24 09:30:43;;;;;;;10.40;6.45;;;;;;;31.35;36.88;94995.25;5058752;28;20118;-54
2022/07/24 09:33:12;;;;;;;7.82;6.10;;;;;;;31.45;36.46;95000.91;5057553;28;20549;-53
2022/07/24 09:35:42;;;;;;;8.25;6.20;;;;;;;31.42;36.20;94996.53;5062359;28;20275;-54
2022/07/24 09:38:12;;;;;;;12.93;6.38;;;;;;;31.46;36.78;94996.88;5062420;28;20024;-54
2022/07/24 09:40:45;;;;;;;8.88;6.10;;;;;;;31.46;36.21;94992.06;5060912;28;20020;-54
2022/07/24 09:43:30;;;;;;;7.60;5.97;;;;;;;31.50;36.25;94986.19;5056036;28;20397;-54
2022/07/24 09:45:55;;;;;;;10.20;5.88;;;;;;;31.48;36.67;94983.22;5053291;28;20127;-54
2022/07/24 09:48:22;;;;;;;7.85;6.10;;;;;;;31.51;36.79;94982.09;5057856;28;20136;-54
2022/07/24 09:50:49;;;;;;;9.25;5.97;;;;;;;31.62;36.52;94976.13;5054827;28;20257;-54
2022/07/24 09:53:17;;;;;;;8.18;6.25;;;;;;;31.43;35.91;94976.63;5061145;28;20032;-54
2022/07/24 09:55:42;;;;;;;10.15;6.07;;;;;;;31.22;36.18;94967.19;5022467;28;20826;-52
2022/07/24 09:58:19;;;;;;;11.50;6.35;;;;;;;30.87;37.67;94970.34;5024504;28;20048;-54
2022/07/24 10:00:44;;;;;;;9.13;5.72;;;;;;;30.62;38.05;94960.56;5042864;28;20129;-54
2022/07/24 10:03:11;;;;;;;9.10;6.57;;;;;;;30.30;38.77;94968.75;5008596;28;20036;-54
2022/07/24 10:05:37;;;;;;;12.93;5.75;;;;;;;30.15;38.79;94974.28;5035916;28;20048;-53
2022/07/24 10:08:06;;;;;;;9.77;6.05;;;;;;;29.79;39.16;94964.78;5034954;28;20501;-52
2022/07/24 10:10:31;;;;;;;8.57;5.63;;;;;;;29.54;39.99;94972.16;5028026;28;20507;-51
2022/07/24 10:12:56;;;;;;;9.25;5.72;;;;;;;29.35;40.11;94960.03;5026253;28;20032;-52
2022/07/24 10:15:22;;;;;;;8.57;5.13;;;;;;;29.26;40.31;94966.09;5061591;28;20029;-54
2022/07/24 10:18:07;;;;;;;6.75;4.93;;;;;;;29.01;40.45;94967.84;5027496;28;20024;-54
2022/07/24 10:20:40;;;;;;;8.25;5.60;;;;;;;28.78;40.90;94964.31;5059657;28;20028;-51
2022/07/24 10:23:05;;;;;;;7.35;5.43;;;;;;;28.65;41.39;94955.47;5048156;28;20074;-51
2022/07/24 10:26:09;;;;;;;8.30;5.78;;;;;;;28.48;41.46;94968.25;5061383;28;20039;-51
2022/07/24 10:28:37;;;;;;;7.63;5.72;;;;;;;28.33;41.48;94963.41;5057295;28;20032;-51
2022/07/24 10:31:04;;;;;;;8.10;5.30;;;;;;;28.22;41.83;94951.28;5058798;28;20334;-51
2022/07/24 10:33:30;;;;;;;7.00;5.25;;;;;;;28.10;42.01;94956.38;5051915;28;20496;-51
2022/07/24 10:35:55;;;;;;;7.45;5.13;;;;;;;27.93;42.79;94953.28;5042112;28;20036;-51
2022/07/24 10:38:23;;;;;;;8.27;5.40;;;;;;;27.87;42.50;94955.44;5043632;28;20502;-51
2022/07/24 10:40:49;;;;;;;8.05;5.38;;;;;;;27.73;42.76;94951.34;5042115;28;20033;-52
2022/07/24 10:43:18;;;;;;;8.05;5.10;;;;;;;27.63;43.46;94946.88;5039721;28;20473;-52
2022/07/24 10:45:56;;;;;;;6.72;5.43;;;;;;;27.49;43.64;94947.50;5052355;28;20576;-52
2022/07/24 10:48:23;;;;;;;7.13;5.05;;;;;;;27.42;43.80;94948.91;5046146;28;20457;-53
2022/07/24 10:51:14;;;;;;;6.85;5.13;;;;;;;27.31;43.81;94937.50;5054012;28;20041;-52
2022/07/24 10:53:51;;;;;;;8.57;5.28;;;;;;;27.21;43.71;94939.22;5044917;28;20446;-52
2022/07/24 10:56:19;;;;;;;7.13;5.28;;;;;;;27.16;43.81;94940.13;5055424;28;21363;-52
2022/07/24 10:58:56;;;;;;;7.40;5.13;;;;;;;27.05;43.88;94931.41;5061052;28;20024;-53
2022/07/24 11:01:44;;;;;;;8.40;5.53;;;;;;;27.08;44.26;94936.56;5055928;28;20028;-51
2022/07/24 11:04:19;;;;;;;6.63;5.03;;;;;;;27.05;44.75;94932.13;5052708;28;20139;-52
2022/07/24 11:06:46;;;;;;;8.35;5.05;;;;;;;26.99;44.86;94923.31;5058977;28;20086;-52
2022/07/24 11:09:12;;;;;;;8.02;5.22;;;;;;;26.96;45.94;94924.38;5059935;28;20036;-52
2022/07/24 11:11:42;;;;;;;7.50;5.60;;;;;;;26.86;46.04;94912.41;5059193;28;20031;-52
2022/07/24 11:14:08;;;;;;;6.97;5.18;;;;;;;26.78;46.41;94908.84;5060554;28;20062;-52
2022/07/24 11:16:33;;;;;;;6.57;5.13;;;;;;;26.72;46.63;94909.53;5058008;28;20762;-53
2022/07/24 11:18:59;;;;;;;7.53;5.57;;;;;;;26.67;46.96;94902.91;5058238;28;20756;-52
2022/07/24 11:21:40;;;;;;;7.25;5.15;;;;;;;26.59;47.29;94917.78;5049062;28;20464;-52
2022/07/24 11:26:46;;;;;;;6.25;5.30;;;;;;;26.59;47.62;94912.31;5059076;28;20056;-55